createdAt,value
2023-05-06T00:01:20.366Z,12.48
2023-05-06T00:03:47.844Z,12.35
2023-05-06T00:06:15.201Z,14.23
2023-05-06T00:08:42.172Z,13.23
2023-05-06T00:11:09.297Z,14.48
2023-05-06T00:13:37.622Z,14.02
2023-05-06T00:16:05.106Z,14.38
2023-05-06T00:18:32.103Z,14.65
2023-05-06T00:20:59.149Z,14.13
2023-05-06T00:23:26.018Z,14.40
2023-05-06T00:25:54.968Z,13.90
2023-05-06T00:28:21.899Z,14.35
2023-05-06T00:30:49.012Z,14.32
2023-05-06T00:33:16.099Z,13.48
2023-05-06T00:35:43.128Z,13.27
2023-05-06T00:38:13.285Z,13.73
2023-05-06T00:40:40.495Z,13.32
2023-05-06T00:43:07.738Z,13.95
2023-05-06T00:45:36.968Z,13.82
2023-05-06T00:48:06.613Z,13.88
2023-05-06T00:50:35.060Z,13.88
2023-05-06T00:53:04.366Z,14.05
2023-05-06T00:55:32.771Z,13.68
2023-05-06T00:57:59.692Z,12.63
2023-05-06T01:00:26.841Z,13.57
2023-05-06T01:02:53.939Z,13.48
2023-05-06T01:05:23.786Z,13.68
2023-05-06T01:08:26.641Z,13.02
2023-05-06T01:11:02.442Z,13.63
2023-05-06T01:13:57.677Z,13.90
2023-05-06T01:16:28.000Z,13.27
2023-05-06T01:18:56.023Z,13.55
2023-05-06T01:21:24.233Z,12.52
2023-05-06T01:23:57.809Z,13.07
2023-05-06T01:26:25.749Z,12.50
2023-05-06T01:28:53.085Z,13.68
2023-05-06T01:31:38.864Z,12.95
2023-05-06T01:34:15.963Z,12.48
2023-05-06T01:37:10.677Z,12.43
2023-05-06T01:39:39.632Z,13.25
2023-05-06T01:42:10.645Z,13.25
2023-05-06T01:44:39.003Z,13.65
2023-05-06T01:47:07.584Z,12.93
2023-05-06T01:49:35.510Z,13.10
2023-05-06T01:52:02.643Z,13.38
2023-05-06T01:54:29.727Z,13.70
2023-05-06T01:56:56.592Z,13.35
2023-05-06T01:59:23.633Z,13.40
2023-05-06T02:01:52.033Z,12.80
2023-05-06T02:04:19.245Z,14.13
2023-05-06T02:06:46.157Z,13.73
2023-05-06T02:09:16.381Z,13.20
2023-05-06T02:11:49.347Z,12.45
2023-05-06T02:14:16.360Z,13.38
2023-05-06T02:16:43.234Z,12.63
2023-05-06T02:19:10.459Z,14.20
2023-05-06T02:21:37.338Z,14.18
2023-05-06T02:24:04.587Z,13.63
2023-05-06T02:26:31.477Z,13.73
2023-05-06T02:28:58.479Z,13.50
2023-05-06T02:31:25.797Z,14.38
2023-05-06T02:33:52.755Z,14.25
2023-05-06T02:36:19.646Z,13.30
2023-05-06T02:38:48.450Z,13.50
2023-05-06T02:41:15.634Z,13.52
2023-05-06T02:43:42.548Z,14.27
2023-05-06T02:46:09.492Z,12.25
2023-05-06T02:48:36.516Z,13.38
2023-05-06T02:51:05.143Z,13.27
2023-05-06T02:53:32.097Z,13.13
2023-05-06T02:55:59.098Z,13.40
2023-05-06T02:58:26.410Z,12.65
2023-05-06T03:00:53.369Z,13.20
2023-05-06T03:03:21.110Z,12.68
2023-05-06T03:05:48.015Z,12.55
2023-05-06T03:08:14.978Z,13.38
2023-05-06T03:10:42.073Z,12.85
2023-05-06T03:13:09.110Z,12.95
2023-05-06T03:15:36.173Z,13.23
2023-05-06T03:18:03.875Z,14.20
2023-05-06T03:20:30.889Z,14.45
2023-05-06T03:22:59.800Z,14.48
2023-05-06T03:25:27.039Z,14.75
2023-05-06T03:27:55.159Z,15.50
2023-05-06T03:30:23.580Z,15.48
2023-05-06T03:32:56.531Z,15.52
2023-05-06T03:35:29.608Z,15.63
2023-05-06T03:37:59.120Z,15.77
2023-05-06T03:40:31.202Z,14.35
2023-05-06T03:42:58.693Z,14.38
2023-05-06T03:45:25.654Z,15.18
2023-05-06T03:47:53.449Z,16.35
2023-05-06T03:50:22.660Z,15.40
2023-05-06T03:52:51.989Z,14.65
2023-05-06T03:55:20.175Z,15.10
2023-05-06T03:57:47.782Z,14.43
2023-05-06T04:00:14.946Z,14.75
2023-05-06T04:02:46.872Z,14.23
2023-05-06T04:05:21.528Z,15.60
2023-05-06T04:07:48.588Z,15.15
2023-05-06T04:10:15.537Z,15.02
2023-05-06T04:12:47.562Z,15.30
2023-05-06T04:15:19.829Z,15.05
2023-05-06T04:17:47.158Z,15.68
2023-05-06T04:20:14.532Z,15.10
2023-05-06T04:22:41.551Z,15.75
2023-05-06T04:25:09.613Z,15.45
2023-05-06T04:27:38.114Z,15.23
2023-05-06T04:30:08.567Z,15.73
2023-05-06T04:32:36.958Z,14.57
2023-05-06T04:35:05.926Z,16.55
2023-05-06T04:37:33.450Z,15.40
2023-05-06T04:40:10.632Z,16.42
2023-05-06T04:42:39.847Z,16.38
2023-05-06T04:45:12.930Z,14.90
2023-05-06T04:47:43.897Z,14.77
2023-05-06T04:50:11.479Z,14.57
2023-05-06T04:52:38.417Z,14.90
2023-05-06T04:55:06.616Z,14.00
2023-05-06T04:57:35.852Z,13.82
2023-05-06T05:00:04.575Z,13.07
2023-05-06T05:02:31.687Z,12.63
2023-05-06T05:04:58.854Z,11.70
2023-05-06T05:07:27.344Z,12.32
2023-05-06T05:09:54.405Z,12.43
2023-05-06T05:12:21.950Z,12.07
2023-05-06T05:14:51.356Z,12.45
2023-05-06T05:17:18.291Z,11.75
2023-05-06T05:19:47.679Z,11.40
2023-05-06T05:22:16.570Z,11.82
2023-05-06T05:24:44.580Z,12.30
2023-05-06T05:27:12.185Z,11.70
2023-05-06T05:29:40.327Z,13.35
2023-05-06T05:32:08.834Z,12.32
2023-05-06T05:34:36.306Z,12.80
2023-05-06T05:37:03.406Z,11.80
2023-05-06T05:39:31.487Z,11.45
2023-05-06T05:41:58.509Z,11.07
2023-05-06T05:44:26.067Z,9.70
2023-05-06T05:46:53.797Z,10.65
2023-05-06T05:49:21.661Z,10.10
2023-05-06T05:51:51.075Z,10.82
2023-05-06T05:54:19.615Z,9.63
2023-05-06T05:56:46.830Z,10.25
2023-05-06T05:59:14.657Z,10.63
2023-05-06T06:01:43.114Z,15.23
2023-05-06T06:04:10.928Z,18.63
2023-05-06T06:06:38.112Z,17.52
2023-05-06T06:09:05.631Z,16.48
2023-05-06T06:11:32.701Z,14.52
2023-05-06T06:14:00.466Z,12.93
2023-05-06T06:16:27.545Z,11.63
2023-05-06T06:18:55.840Z,10.70
2023-05-06T06:21:22.814Z,10.20
2023-05-06T06:23:49.871Z,10.25
2023-05-06T06:26:16.770Z,9.65
2023-05-06T06:28:44.880Z,10.10
2023-05-06T06:31:12.130Z,8.80
2023-05-06T06:33:39.150Z,8.50
2023-05-06T06:36:06.667Z,8.48
2023-05-06T06:38:33.767Z,9.18
2023-05-06T06:41:00.642Z,8.60
2023-05-06T06:43:27.889Z,8.23
2023-05-06T06:46:02.215Z,8.27
2023-05-06T06:48:29.312Z,7.90
2023-05-06T06:50:56.179Z,8.27
2023-05-06T06:53:23.200Z,9.18
2023-05-06T06:55:50.149Z,8.07
2023-05-06T06:58:17.123Z,8.57
2023-05-06T07:00:44.532Z,8.05
2023-05-06T07:03:11.646Z,8.20
2023-05-06T07:05:38.494Z,8.93
2023-05-06T07:08:05.679Z,8.15
2023-05-06T07:10:32.666Z,8.43
2023-05-06T07:12:59.802Z,8.27
2023-05-06T07:15:26.961Z,7.95
2023-05-06T07:17:54.256Z,7.82
2023-05-06T07:20:21.274Z,7.85
2023-05-06T07:22:48.208Z,7.78
2023-05-06T07:25:15.552Z,7.82
2023-05-06T07:27:42.569Z,8.35
2023-05-06T07:30:09.801Z,7.57
2023-05-06T07:32:37.135Z,7.15
2023-05-06T07:35:04.389Z,7.50
2023-05-06T07:37:31.413Z,7.00
2023-05-06T07:39:58.557Z,7.13
2023-05-06T07:42:25.787Z,7.40
2023-05-06T07:44:52.890Z,7.05
2023-05-06T07:47:34.529Z,6.65
2023-05-06T07:50:01.974Z,6.40
2023-05-06T07:52:29.224Z,6.80
2023-05-06T07:54:56.621Z,6.20
2023-05-06T07:57:23.862Z,5.80
2023-05-06T07:59:52.214Z,5.90
2023-05-06T08:02:19.353Z,5.22
2023-05-06T08:04:47.019Z,5.45
2023-05-06T08:07:15.804Z,5.10
2023-05-06T08:09:42.931Z,4.65
2023-05-06T08:12:10.100Z,4.43
2023-05-06T08:14:37.132Z,4.78
2023-05-06T08:17:04.382Z,3.83
2023-05-06T08:19:31.617Z,4.10
2023-05-06T08:21:58.545Z,4.60
2023-05-06T08:24:25.727Z,4.10
2023-05-06T08:26:52.846Z,3.78
2023-05-06T08:29:19.869Z,3.50
2023-05-06T08:31:47.371Z,3.90
2023-05-06T08:34:14.568Z,4.20
2023-05-06T08:36:41.421Z,4.10
2023-05-06T08:39:08.463Z,4.25
2023-05-06T08:41:39.816Z,3.72
2023-05-06T08:44:08.395Z,3.40
2023-05-06T08:46:35.826Z,3.80
2023-05-06T08:49:03.180Z,3.55
2023-05-06T08:51:31.980Z,4.00
2023-05-06T08:54:02.493Z,3.15
2023-05-06T08:56:33.012Z,3.35
2023-05-06T08:59:01.344Z,3.53
2023-05-06T09:01:28.963Z,3.67
2023-05-06T09:03:58.202Z,4.28
2023-05-06T09:06:25.243Z,3.78
2023-05-06T09:08:52.297Z,4.45
2023-05-06T09:11:29.649Z,3.83
2023-05-06T09:14:11.973Z,3.33
2023-05-06T09:16:41.560Z,3.80
2023-05-06T09:19:08.680Z,3.97
2023-05-06T09:21:41.134Z,4.13
2023-05-06T09:24:09.753Z,3.85
2023-05-06T09:26:38.486Z,4.00
2023-05-06T09:29:06.665Z,4.13
2023-05-06T09:31:39.816Z,4.30
2023-05-06T09:34:07.227Z,4.00
2023-05-06T09:36:34.141Z,3.80
2023-05-06T09:39:01.220Z,4.50
2023-05-06T09:41:28.814Z,3.97
2023-05-06T09:43:56.751Z,4.10
2023-05-06T09:46:24.881Z,3.90
2023-05-06T09:48:53.825Z,4.10
2023-05-06T09:51:21.524Z,4.00
2023-05-06T09:53:48.792Z,3.92
2023-05-06T09:56:16.669Z,2.65
2023-05-06T09:58:45.128Z,3.80
2023-05-06T10:01:19.234Z,4.25
2023-05-06T10:03:54.064Z,3.92
2023-05-06T10:06:24.328Z,3.90
2023-05-06T10:08:52.646Z,4.40
2023-05-06T10:11:21.332Z,4.05
2023-05-06T10:13:49.634Z,3.90
2023-05-06T10:16:18.489Z,4.47
2023-05-06T10:18:46.546Z,4.15
2023-05-06T10:21:24.822Z,4.50
2023-05-06T10:23:59.477Z,4.10
2023-05-06T10:26:29.964Z,4.45
2023-05-06T10:28:57.850Z,4.40
2023-05-06T10:31:26.148Z,4.63
2023-05-06T10:33:56.257Z,4.65
2023-05-06T10:36:28.787Z,4.90
2023-05-06T10:38:58.611Z,4.68
2023-05-06T10:41:28.154Z,4.88
2023-05-06T10:44:00.224Z,4.90
2023-05-06T10:46:30.779Z,3.95
2023-05-06T10:49:19.987Z,3.92
2023-05-06T10:52:11.688Z,4.03
2023-05-06T10:54:51.923Z,4.13
2023-05-06T10:57:21.842Z,3.60
2023-05-06T10:59:49.256Z,3.35
2023-05-06T11:02:20.376Z,3.38
2023-05-06T11:04:52.611Z,3.58
2023-05-06T11:07:24.003Z,3.65
2023-05-06T11:10:06.233Z,3.45
2023-05-06T11:12:52.801Z,3.33
2023-05-06T11:15:29.589Z,4.28
2023-05-06T11:17:57.459Z,3.70
2023-05-06T11:20:26.812Z,4.18
2023-05-06T11:22:54.678Z,4.03
2023-05-06T11:25:40.287Z,3.75
2023-05-06T11:30:41.959Z,4.05
2023-05-06T11:33:21.982Z,3.83
2023-05-06T11:35:49.191Z,3.45
2023-05-06T11:38:16.267Z,4.10
2023-05-06T11:40:43.555Z,3.35
2023-05-06T11:43:14.919Z,3.67
2023-05-06T11:45:45.855Z,3.40
2023-05-06T11:48:18.096Z,3.42
2023-05-06T11:50:47.609Z,3.42
2023-05-06T11:53:19.252Z,3.75
2023-05-06T11:55:47.200Z,3.45
2023-05-06T11:58:25.475Z,3.47
2023-05-06T12:00:57.395Z,3.67
2023-05-06T12:03:26.204Z,3.67
2023-05-06T12:05:53.712Z,3.75
2023-05-06T12:08:28.036Z,4.03
2023-05-06T12:11:01.830Z,3.58
2023-05-06T12:13:29.738Z,3.92
2023-05-06T12:15:59.521Z,4.00
2023-05-06T12:18:27.775Z,3.83
2023-05-06T12:21:02.893Z,3.80
2023-05-06T12:23:30.191Z,4.13
2023-05-06T12:26:09.283Z,3.83
2023-05-06T12:28:37.417Z,4.38
2023-05-06T12:31:24.369Z,4.00
2023-05-06T12:33:51.729Z,4.18
2023-05-06T12:36:19.723Z,4.25
2023-05-06T12:38:57.967Z,4.03
2023-05-06T12:41:36.184Z,3.88
2023-05-06T12:44:04.380Z,3.85
2023-05-06T12:46:31.535Z,5.15
2023-05-06T12:48:59.708Z,4.00
2023-05-06T12:51:27.445Z,3.95
2023-05-06T12:53:54.513Z,4.07
2023-05-06T12:56:24.660Z,4.20
2023-05-06T12:59:02.606Z,4.20
2023-05-06T13:01:29.639Z,4.28
2023-05-06T13:03:57.769Z,4.05
2023-05-06T13:06:25.188Z,3.60
2023-05-06T13:08:52.159Z,3.92
2023-05-06T13:11:19.248Z,3.85
2023-05-06T13:13:46.212Z,3.97
2023-05-06T13:16:13.262Z,4.43
2023-05-06T13:18:40.234Z,4.68
2023-05-06T13:21:07.354Z,5.03
2023-05-06T13:23:35.171Z,4.07
2023-05-06T13:26:06.033Z,4.38
2023-05-06T13:28:36.833Z,4.05
2023-05-06T13:31:04.097Z,4.70
2023-05-06T13:33:31.339Z,4.15
2023-05-06T13:35:58.298Z,4.45
2023-05-06T13:38:25.208Z,4.32
2023-05-06T13:40:53.249Z,4.07
2023-05-06T13:43:21.220Z,3.63
2023-05-06T13:45:48.445Z,4.32
2023-05-06T13:48:15.779Z,4.30
2023-05-06T13:50:46.948Z,4.60
2023-05-06T13:53:14.912Z,4.15
2023-05-06T13:55:43.011Z,4.32
2023-05-06T13:58:11.010Z,5.53
2023-05-06T14:00:38.969Z,4.85
2023-05-06T14:03:06.253Z,4.97
2023-05-06T14:05:33.213Z,4.80
2023-05-06T14:08:00.227Z,5.38
2023-05-06T14:10:27.621Z,5.22
2023-05-06T14:12:55.256Z,5.35
2023-05-06T14:15:22.327Z,5.55
2023-05-06T14:17:49.555Z,7.50
2023-05-06T14:20:16.855Z,7.22
2023-05-06T14:22:44.251Z,7.18
2023-05-06T14:25:11.821Z,8.63
2023-05-06T14:27:39.135Z,9.68
2023-05-06T14:30:09.364Z,8.52
2023-05-06T14:32:37.562Z,9.23
2023-05-06T14:35:05.208Z,8.77
2023-05-06T14:37:32.772Z,8.13
2023-05-06T14:39:59.943Z,7.95
2023-05-06T14:42:27.147Z,8.65
2023-05-06T14:44:55.052Z,8.27
2023-05-06T14:47:22.523Z,7.82
2023-05-06T14:49:49.764Z,7.72
2023-05-06T14:52:16.900Z,8.65
2023-05-06T14:54:44.821Z,7.15
2023-05-06T14:57:12.176Z,7.40
2023-05-06T14:59:39.262Z,7.85
2023-05-06T15:02:08.846Z,7.53
2023-05-06T15:04:36.798Z,6.60
2023-05-06T15:07:04.183Z,8.93
2023-05-06T15:09:31.368Z,8.98
2023-05-06T15:11:58.796Z,8.48
2023-05-06T15:14:25.909Z,8.70
2023-05-06T15:16:58.302Z,9.32
2023-05-06T15:19:25.818Z,8.85
2023-05-06T15:21:52.837Z,9.02
2023-05-06T15:24:19.888Z,8.25
2023-05-06T15:26:46.813Z,9.77
2023-05-06T15:29:14.153Z,8.02
2023-05-06T15:31:43.611Z,9.80
2023-05-06T15:34:11.892Z,10.23
2023-05-06T15:36:42.449Z,10.05
2023-05-06T15:39:09.696Z,9.82
2023-05-06T15:41:38.547Z,9.90
2023-05-06T15:44:06.379Z,9.50
2023-05-06T15:46:34.077Z,9.32
2023-05-06T15:49:32.049Z,8.30
2023-05-06T15:51:49.067Z,9.75
2023-05-06T15:54:18.332Z,9.30
2023-05-06T15:56:46.374Z,10.55
2023-05-06T15:59:13.582Z,10.65
2023-05-06T16:02:24.702Z,11.48
2023-05-06T16:04:30.062Z,11.93
2023-05-06T16:06:57.686Z,11.65
2023-05-06T16:09:24.928Z,12.27
2023-05-06T16:11:52.005Z,12.70
2023-05-06T16:14:18.977Z,12.32
2023-05-06T16:16:45.917Z,11.85
2023-05-06T16:19:13.019Z,12.73
2023-05-06T16:21:40.002Z,11.35
2023-05-06T16:24:07.129Z,11.73
2023-05-06T16:26:34.099Z,12.10
2023-05-06T16:29:01.742Z,12.10
2023-05-06T16:31:29.015Z,12.15
2023-05-06T16:33:56.603Z,12.18
2023-05-06T16:36:23.686Z,12.82
2023-05-06T16:38:50.827Z,14.13
2023-05-06T16:41:17.915Z,13.60
2023-05-06T16:43:44.930Z,12.57
2023-05-06T16:46:11.996Z,10.50
2023-05-06T16:48:39.141Z,10.82
2023-05-06T16:51:06.334Z,10.18
2023-05-06T16:53:33.539Z,9.88
2023-05-06T16:56:03.582Z,9.88
2023-05-06T16:58:30.578Z,9.57
2023-05-06T17:00:57.579Z,9.40
2023-05-06T17:03:24.791Z,10.45
2023-05-06T17:05:52.037Z,10.38
2023-05-06T17:08:19.320Z,9.77
2023-05-06T17:10:46.446Z,11.27
2023-05-06T17:13:13.931Z,11.93
2023-05-06T17:15:41.156Z,13.00
2023-05-06T17:18:08.405Z,13.10
2023-05-06T17:20:51.596Z,14.20
2023-05-06T17:23:21.983Z,12.32
2023-05-06T17:25:49.114Z,14.27
2023-05-06T17:28:18.009Z,14.25
2023-05-06T17:30:45.762Z,14.63
2023-05-06T17:33:13.030Z,14.73
2023-05-06T17:35:40.186Z,14.15
2023-05-06T17:38:07.876Z,14.30
2023-05-06T17:40:34.892Z,14.88
2023-05-06T17:43:02.082Z,14.55
2023-05-06T17:45:29.476Z,13.77
2023-05-06T17:47:56.858Z,15.07
2023-05-06T17:50:24.075Z,13.88
2023-05-06T17:52:53.040Z,15.20
2023-05-06T17:55:21.790Z,15.63
2023-05-06T17:57:49.460Z,15.00
2023-05-06T18:00:17.200Z,14.48
2023-05-06T18:02:44.977Z,13.25
2023-05-06T18:05:13.523Z,13.57
2023-05-06T18:07:41.153Z,14.43
2023-05-06T18:10:08.563Z,14.02
2023-05-06T18:12:35.610Z,14.45
2023-05-06T18:15:02.702Z,14.45
2023-05-06T18:17:29.627Z,14.07
2023-05-06T18:19:56.879Z,13.23
2023-05-06T18:22:23.998Z,13.75
2023-05-06T18:24:55.164Z,13.90
2023-05-06T18:27:22.917Z,13.25
2023-05-06T18:29:49.840Z,12.77
2023-05-06T18:32:17.754Z,14.10
2023-05-06T18:34:44.661Z,13.15
2023-05-06T18:37:11.628Z,16.13
2023-05-06T18:39:42.690Z,13.55
2023-05-06T18:42:10.218Z,13.70
2023-05-06T18:44:37.948Z,14.75
2023-05-06T18:47:05.138Z,14.73
2023-05-06T18:49:32.156Z,14.45
2023-05-06T18:51:59.286Z,15.02
2023-05-06T18:54:26.199Z,15.88
2023-05-06T18:56:53.377Z,16.92
2023-05-06T18:59:21.382Z,15.50
2023-05-06T19:01:48.493Z,18.63
2023-05-06T19:04:15.501Z,16.88
2023-05-06T19:06:42.568Z,17.92
2023-05-06T19:09:09.578Z,16.70
2023-05-06T19:11:36.681Z,17.85
2023-05-06T19:14:03.995Z,16.63
2023-05-06T19:16:31.215Z,18.08
2023-05-06T19:18:58.208Z,17.00
2023-05-06T19:21:25.302Z,16.48
2023-05-06T19:23:53.261Z,18.27
2023-05-06T19:26:21.114Z,16.63
2023-05-06T19:28:48.225Z,16.67
2023-05-06T19:31:15.517Z,18.63
2023-05-06T19:33:43.254Z,18.58
2023-05-06T19:36:10.729Z,19.27
2023-05-06T19:38:37.958Z,17.90
2023-05-06T19:41:05.207Z,19.45
2023-05-06T19:43:32.259Z,19.73
2023-05-06T19:45:59.449Z,20.17
2023-05-06T19:48:26.441Z,20.77
2023-05-06T19:50:54.120Z,18.75
2023-05-06T19:53:22.807Z,18.45
2023-05-06T19:55:50.068Z,18.92
2023-05-06T19:58:18.941Z,18.33
2023-05-06T20:00:46.172Z,18.35
2023-05-06T20:03:13.529Z,18.10
2023-05-06T20:05:41.305Z,18.55
2023-05-06T20:08:11.687Z,20.13
2023-05-06T20:10:38.887Z,18.65
2023-05-06T20:13:07.134Z,18.30
2023-05-06T20:15:35.801Z,20.48
2023-05-06T20:18:02.898Z,20.05
2023-05-06T20:20:36.104Z,19.95
2023-05-06T20:23:03.778Z,19.63
2023-05-06T20:25:31.191Z,19.88
2023-05-06T20:27:59.368Z,19.90
2023-05-06T20:30:26.806Z,21.20
2023-05-06T20:32:54.016Z,19.70
2023-05-06T20:35:21.070Z,22.08
2023-05-06T20:37:48.053Z,23.25
2023-05-06T20:40:15.302Z,22.75
2023-05-06T20:42:42.344Z,23.05
2023-05-06T20:45:09.893Z,23.08
2023-05-06T20:47:37.234Z,22.58
2023-05-06T20:50:04.448Z,22.00
2023-05-06T20:52:31.670Z,23.60
2023-05-06T20:54:58.661Z,24.02
2023-05-06T20:57:25.824Z,21.73
2023-05-06T20:59:52.907Z,22.02
2023-05-06T21:02:20.048Z,22.63
2023-05-06T21:04:47.316Z,22.73
2023-05-06T21:07:14.493Z,21.33
2023-05-06T21:09:41.745Z,21.35
2023-05-06T21:12:08.731Z,21.35
2023-05-06T21:14:35.697Z,21.02
2023-05-06T21:17:02.945Z,21.75
2023-05-06T21:19:30.000Z,21.27
2023-05-06T21:21:57.996Z,21.55
2023-05-06T21:24:24.864Z,21.73
2023-05-06T21:26:52.892Z,21.67
2023-05-06T21:29:21.243Z,20.50
2023-05-06T21:31:48.151Z,20.65
2023-05-06T21:34:15.284Z,21.58
2023-05-06T21:36:42.401Z,20.92
2023-05-06T21:39:12.682Z,19.42
2023-05-06T21:41:40.565Z,20.27
2023-05-06T21:44:08.849Z,19.02
2023-05-06T21:46:37.828Z,18.40
2023-05-06T21:49:05.315Z,18.48
2023-05-06T21:51:33.737Z,19.52
2023-05-06T21:54:00.943Z,19.20
2023-05-06T21:56:28.104Z,19.45
2023-05-06T21:58:58.317Z,19.25
2023-05-06T22:01:29.220Z,18.95
2023-05-06T22:03:56.590Z,19.95
2023-05-06T22:06:23.631Z,20.73
2023-05-06T22:08:50.688Z,21.50
2023-05-06T22:11:17.741Z,20.70
2023-05-06T22:13:44.667Z,20.65
2023-05-06T22:16:11.579Z,20.95
2023-05-06T22:18:41.476Z,21.05
2023-05-06T22:21:09.617Z,21.13
2023-05-06T22:23:36.795Z,21.38
2023-05-06T22:26:03.874Z,21.25
2023-05-06T22:28:30.914Z,21.05
2023-05-06T22:30:58.161Z,21.27
2023-05-06T22:33:26.440Z,21.25
2023-05-06T22:35:53.766Z,21.73
2023-05-06T22:38:21.006Z,20.85
2023-05-06T22:40:47.976Z,22.42
2023-05-06T22:43:14.878Z,22.27
2023-05-06T22:45:41.824Z,21.95
2023-05-06T22:48:08.744Z,21.77
2023-05-06T22:50:36.504Z,23.35
2023-05-06T22:53:13.741Z,22.85
2023-05-06T22:55:42.355Z,22.95
2023-05-06T22:58:09.300Z,24.63
2023-05-06T23:00:36.592Z,24.30
2023-05-06T23:03:03.658Z,24.92
2023-05-06T23:05:30.684Z,26.30
2023-05-06T23:07:57.562Z,26.05
2023-05-06T23:10:24.628Z,25.67
2023-05-06T23:12:51.588Z,26.00
2023-05-06T23:15:18.679Z,26.02
2023-05-06T23:17:45.784Z,24.23
2023-05-06T23:20:12.950Z,24.60
2023-05-06T23:22:39.866Z,25.00
2023-05-06T23:25:09.265Z,25.80
2023-05-06T23:27:41.679Z,24.45
2023-05-06T23:30:10.854Z,24.15
2023-05-06T23:32:38.062Z,24.63
2023-05-06T23:35:07.416Z,25.00
2023-05-06T23:37:34.604Z,24.00
2023-05-06T23:40:01.626Z,24.55
2023-05-06T23:42:28.547Z,24.08
2023-05-06T23:44:55.535Z,24.67
2023-05-06T23:47:24.468Z,23.95
2023-05-06T23:49:51.633Z,23.30
2023-05-06T23:52:18.499Z,23.90
2023-05-06T23:54:45.531Z,24.25
2023-05-06T23:57:12.548Z,25.55
2023-05-06T23:59:39.513Z,22.80
